Time;durP1;ratioP1;P1;durP2;ratioP2;P2;SDS_P1;SDS_P2;PMS_P1;PMS_P2;Temp;Humidity;BMP_temperature;BMP_pressure;BME280_temperature;BME280_humidity;BME280_pressure;Samples;Min_cycle;Max_cycle;Signal;HPM_P1;HPM_P2
2023/01/09 20:52:10;;;;;;;12.30;11.50;;;7.50;99.90;;;;;;4083819;27;10000791;-49
2023/01/09 20:54:39;;;;;;;12.33;11.63;;;7.60;99.90;;;;;;5057730;28;65222;-45
2023/01/09 20:57:05;;;;;;;12.60;11.80;;;7.60;99.90;;;;;;5061817;28;20240;-45
2023/01/09 20:59:30;;;;;;;13.77;12.97;;;7.70;99.90;;;;;;5055714;28;20452;-46
2023/01/09 21:01:56;;;;;;;14.20;13.30;;;7.70;99.90;;;;;;5060087;28;20193;-47
2023/01/09 21:04:22;;;;;;;13.83;13.03;;;7.70;99.90;;;;;;5065780;28;20623;-46
2023/01/09 21:06:47;;;;;;;12.90;12.20;;;7.70;99.90;;;;;;5063743;28;20188;-45
2023/01/09 21:09:13;;;;;;;13.00;12.20;;;7.70;99.90;;;;;;5060904;28;20185;-43
2023/01/09 21:11:38;;;;;;;13.63;12.83;;;7.60;99.90;;;;;;5061513;28;20209;-47
2023/01/09 21:14:04;;;;;;;12.40;11.80;;;7.70;99.90;;;;;;5063559;28;20205;-45
2023/01/09 21:16:30;;;;;;;13.00;12.30;;;7.70;99.90;;;;;;5061373;28;20186;-45
2023/01/09 21:18:55;;;;;;;13.80;12.90;;;7.70;99.90;;;;;;5065780;28;20293;-44
2023/01/09 21:21:26;;;;;;;13.40;12.43;;;7.70;99.90;;;;;;5065775;28;20264;-49
2023/01/09 21:23:54;;;;;;;13.27;12.37;;;7.70;99.90;;;;;;5064139;28;20196;-50
2023/01/09 21:26:24;;;;;;;12.27;11.57;;;7.70;99.90;;;;;;5065113;28;20968;-44
2023/01/09 21:28:53;;;;;;;12.20;11.50;;;7.70;99.90;;;;;;5044019;28;20841;-46
2023/01/09 21:31:23;;;;;;;13.20;12.40;;;7.70;99.90;;;;;;5056744;28;20510;-44
2023/01/09 21:33:50;;;;;;;12.80;12.10;;;7.60;99.90;;;;;;5065012;28;20531;-44
2023/01/09 21:36:16;;;;;;;14.20;13.40;;;7.60;99.90;;;;;;5063847;28;20441;-49
2023/01/09 21:38:42;;;;;;;13.43;12.63;;;7.60;99.90;;;;;;5065854;28;21245;-48
2023/01/09 21:46:50;;;;;;;13.70;12.90;;;7.60;99.90;;;;;;5064695;28;20454;-45
2023/01/09 21:49:17;;;;;;;14.30;13.50;;;7.60;99.90;;;;;;5043261;28;20458;-45
2023/01/09 21:51:43;;;;;;;13.33;12.63;;;7.60;99.90;;;;;;5060760;28;20515;-48
2023/01/09 21:54:09;;;;;;;13.40;12.60;;;7.60;99.90;;;;;;5065347;28;20462;-46
2023/01/09 21:56:35;;;;;;;14.30;13.40;;;7.60;99.90;;;;;;5064052;28;20573;-46
2023/01/09 21:59:01;;;;;;;13.60;12.90;;;7.70;99.90;;;;;;5063592;28;21087;-47
2023/01/09 22:01:28;;;;;;;13.50;12.70;;;7.70;99.90;;;;;;5062484;28;21137;-45
2023/01/09 22:03:57;;;;;;;13.17;12.47;;;7.70;99.90;;;;;;5052115;28;20480;-45
2023/01/09 22:06:23;;;;;;;12.07;11.50;;;7.70;99.90;;;;;;5049408;28;20953;-44
2023/01/09 22:08:49;;;;;;;11.93;11.43;;;7.80;99.90;;;;;;5047056;28;20424;-46
2023/01/09 22:11:15;;;;;;;12.83;12.13;;;7.80;99.90;;;;;;5051833;28;20515;-44
2023/01/09 22:13:44;;;;;;;12.50;11.87;;;7.80;99.90;;;;;;5051971;28;20420;-47
2023/01/09 22:16:10;;;;;;;12.67;11.97;;;7.80;99.90;;;;;;5049696;28;20560;-48
2023/01/09 22:18:36;;;;;;;12.70;12.10;;;7.80;99.90;;;;;;5052127;28;20452;-47
2023/01/09 22:21:02;;;;;;;12.30;11.70;;;7.80;99.90;;;;;;5050227;28;20627;-47
2023/01/09 22:23:28;;;;;;;11.57;11.00;;;7.70;99.90;;;;;;5050727;28;20181;-49
2023/01/09 22:25:55;;;;;;;12.63;11.93;;;7.70;99.90;;;;;;5050186;28;20439;-43
2023/01/09 22:28:21;;;;;;;12.60;11.90;;;7.60;99.90;;;;;;5042144;28;20458;-47
2023/01/09 22:30:47;;;;;;;11.50;11.00;;;7.60;99.90;;;;;;5050140;28;20563;-47
2023/01/09 22:33:13;;;;;;;12.63;11.70;;;7.60;99.90;;;;;;5050164;28;20507;-43
2023/01/09 22:35:41;;;;;;;11.20;10.70;;;7.70;99.90;;;;;;5049303;28;20182;-46
2023/01/09 22:38:07;;;;;;;11.37;10.83;;;7.70;99.90;;;;;;5050089;28;20490;-46
2023/01/09 22:40:33;;;;;;;11.80;11.30;;;7.80;99.90;;;;;;5028846;28;20498;-44
2023/01/09 22:42:59;;;;;;;11.80;11.30;;;7.80;99.90;;;;;;5049329;28;20916;-48
2023/01/09 22:45:24;;;;;;;11.67;11.17;;;7.80;99.90;;;;;;5050169;28;20200;-45
2023/01/09 22:47:50;;;;;;;11.80;11.30;;;7.80;99.90;;;;;;5048605;28;20518;-43
2023/01/09 22:50:16;;;;;;;11.90;11.40;;;7.70;99.90;;;;;;5048023;28;20559;-44
2023/01/09 22:52:42;;;;;;;11.80;11.30;;;7.60;99.90;;;;;;5044233;28;20281;-45
2023/01/09 22:55:08;;;;;;;12.00;11.30;;;7.70;99.90;;;;;;5050285;28;20512;-46
2023/01/09 22:57:34;;;;;;;12.03;11.43;;;7.70;99.90;;;;;;5049772;28;20190;-43
2023/01/09 23:00:00;;;;;;;11.90;11.40;;;7.70;99.90;;;;;;5050109;28;20812;-43
2023/01/09 23:02:26;;;;;;;10.63;10.13;;;7.70;99.90;;;;;;5047342;28;20436;-42
2023/01/09 23:04:57;;;;;;;12.20;11.50;;;7.70;99.90;;;;;;5050367;28;20451;-47
2023/01/09 23:07:23;;;;;;;12.07;11.47;;;7.70;99.90;;;;;;5048044;28;20915;-43
2023/01/09 23:09:49;;;;;;;12.17;11.57;;;7.80;99.90;;;;;;5041143;28;20789;-47
2023/01/09 23:12:14;;;;;;;12.13;11.53;;;7.80;99.90;;;;;;5050253;28;20424;-47
2023/01/09 23:14:40;;;;;;;11.20;10.70;;;7.80;99.90;;;;;;5049319;28;20166;-46
2023/01/09 23:17:08;;;;;;;12.40;11.67;;;7.80;99.90;;;;;;5048571;28;21123;-44
2023/01/09 23:19:34;;;;;;;12.00;11.40;;;7.80;99.90;;;;;;5050279;28;20202;-44
2023/01/09 23:22:00;;;;;;;12.47;11.97;;;7.70;99.90;;;;;;5050254;28;20544;-44
2023/01/09 23:24:27;;;;;;;12.60;12.00;;;7.80;99.90;;;;;;5045767;28;20190;-48
2023/01/09 23:26:53;;;;;;;11.87;11.27;;;7.70;99.90;;;;;;5047679;28;20436;-44
2023/01/09 23:29:20;;;;;;;12.30;11.80;;;7.70;99.90;;;;;;5049840;28;20565;-46
2023/01/09 23:31:46;;;;;;;11.80;11.20;;;7.70;99.90;;;;;;5050255;28;20471;-47
2023/01/09 23:34:18;;;;;;;12.50;11.90;;;7.80;99.90;;;;;;5050047;28;20440;-45
2023/01/09 23:36:46;;;;;;;13.03;12.43;;;7.80;99.90;;;;;;5048170;28;20439;-45
2023/01/09 23:39:12;;;;;;;12.70;12.10;;;7.70;99.90;;;;;;5048522;28;20527;-48
2023/01/09 23:44:24;;;;;;;13.20;12.50;;;7.70;99.90;;;;;;5034700;28;20451;-45
2023/01/09 23:46:49;;;;;;;12.40;11.80;;;7.80;99.90;;;;;;5049591;28;20440;-44
2023/01/09 23:49:15;;;;;;;13.00;12.30;;;7.80;99.90;;;;;;5049082;28;20196;-47
2023/01/09 23:51:41;;;;;;;13.20;12.50;;;7.70;99.90;;;;;;5049245;28;20226;-44
2023/01/09 23:54:06;;;;;;;12.97;12.37;;;7.80;99.90;;;;;;5047761;28;20535;-48
2023/01/09 23:56:33;;;;;;;12.73;12.03;;;7.80;99.90;;;;;;5046835;28;20224;-44
2023/01/09 23:59:00;;;;;;;12.70;12.00;;;7.80;99.90;;;;;;5048301;28;20181;-44
